createdAt,value
2018-05-21T00:01:37.897Z,82.60
2018-05-21T00:04:07.493Z,82.60
2018-05-21T00:06:37.624Z,82.60
2018-05-21T00:09:07.237Z,82.90
2018-05-21T00:11:36.096Z,82.90
2018-05-21T00:14:04.939Z,83.00
2018-05-21T00:16:33.770Z,83.10
2018-05-21T00:19:02.618Z,83.10
2018-05-21T00:21:31.451Z,83.10
2018-05-21T00:24:01.376Z,83.30
2018-05-21T00:26:30.980Z,84.30
2018-05-21T00:29:00.593Z,83.90
2018-05-21T00:31:30.197Z,83.80
2018-05-21T00:33:59.089Z,83.80
2018-05-21T00:36:28.854Z,84.00
2018-05-21T00:38:58.499Z,83.80
2018-05-21T00:41:27.320Z,84.00
2018-05-21T00:43:56.920Z,85.90
2018-05-21T00:46:25.760Z,85.90
2018-05-21T00:48:55.257Z,86.20
2018-05-21T00:51:24.083Z,86.50
2018-05-21T00:53:52.915Z,87.00
2018-05-21T00:56:22.529Z,86.70
2018-05-21T00:58:52.124Z,86.80
2018-05-21T01:01:21.729Z,87.10
2018-05-21T01:03:51.328Z,88.00
2018-05-21T01:06:20.168Z,87.20
2018-05-21T01:08:49.020Z,87.50
2018-05-21T01:11:18.639Z,87.50
2018-05-21T01:13:48.524Z,87.30
2018-05-21T01:16:17.353Z,87.20
2018-05-21T01:18:46.189Z,87.50
2018-05-21T01:21:15.253Z,87.60
2018-05-21T01:23:44.097Z,87.50
2018-05-21T01:26:12.930Z,87.40
2018-05-21T01:28:41.761Z,87.40
2018-05-21T01:31:10.663Z,87.40
2018-05-21T01:33:39.434Z,88.20
2018-05-21T01:36:08.290Z,87.90
2018-05-21T01:38:37.129Z,88.20
2018-05-21T01:41:05.937Z,88.00
2018-05-21T01:43:34.781Z,87.90
2018-05-21T01:46:03.931Z,87.20
2018-05-21T01:48:32.784Z,88.10
2018-05-21T01:51:01.629Z,88.90
2018-05-21T01:53:30.464Z,88.80
2018-05-21T01:55:59.280Z,88.40
2018-05-21T01:58:28.148Z,88.20
2018-05-21T02:00:56.960Z,88.00
2018-05-21T02:03:25.810Z,87.90
2018-05-21T02:05:54.652Z,87.60
2018-05-21T02:08:23.551Z,87.50
2018-05-21T02:10:52.340Z,87.00
2018-05-21T02:13:21.185Z,86.80
2018-05-21T02:15:50.026Z,87.00
2018-05-21T02:18:18.877Z,86.90
2018-05-21T02:20:47.707Z,87.40
2018-05-21T02:23:16.546Z,87.00
2018-05-21T02:25:45.373Z,87.00
2018-05-21T02:28:14.212Z,87.00
2018-05-21T02:30:43.498Z,86.90
2018-05-21T02:33:13.106Z,87.50
2018-05-21T02:35:41.951Z,87.30
2018-05-21T02:38:10.785Z,87.90
2018-05-21T02:40:39.619Z,88.40
2018-05-21T02:43:08.453Z,88.30
2018-05-21T02:45:37.483Z,88.90
2018-05-21T02:48:06.329Z,89.00
2018-05-21T02:50:35.181Z,89.10
2018-05-21T02:53:04.774Z,89.30
2018-05-21T02:55:34.700Z,89.80
2018-05-21T02:58:04.304Z,90.00
2018-05-21T03:00:33.930Z,90.10
2018-05-21T03:03:03.533Z,90.10
2018-05-21T03:05:33.136Z,90.10
2018-05-21T03:08:02.717Z,90.20
2018-05-21T03:10:31.568Z,90.20
2018-05-21T03:13:00.397Z,90.20
2018-05-21T03:15:29.437Z,90.10
2018-05-21T03:17:58.253Z,90.20
2018-05-21T03:20:27.093Z,90.20
2018-05-21T03:22:56.704Z,90.30
2018-05-21T03:25:26.329Z,90.00
2018-05-21T03:27:55.136Z,90.00
2018-05-21T03:30:23.996Z,90.20
2018-05-21T03:32:52.826Z,90.30
2018-05-21T03:35:21.901Z,90.20
2018-05-21T03:37:50.734Z,90.30
2018-05-21T03:40:19.594Z,90.40
2018-05-21T03:42:49.218Z,90.30
2018-05-21T03:45:18.032Z,90.30
2018-05-21T03:47:46.878Z,90.40
2018-05-21T03:50:16.466Z,90.50
2018-05-21T03:52:45.305Z,90.50
2018-05-21T03:55:14.134Z,90.70
2018-05-21T03:57:42.982Z,90.70
2018-05-21T04:00:23.752Z,90.70
2018-05-21T04:03:05.128Z,90.70
2018-05-21T04:05:33.964Z,90.50
2018-05-21T04:08:04.483Z,90.90
2018-05-21T04:10:33.305Z,90.80
2018-05-21T04:13:02.908Z,90.70
2018-05-21T04:15:32.519Z,90.60
2018-05-21T04:18:01.701Z,90.60
2018-05-21T04:20:31.305Z,90.50
2018-05-21T04:23:00.145Z,90.50
2018-05-21T04:25:29.073Z,90.20
2018-05-21T04:27:57.827Z,90.30
2018-05-21T04:30:26.665Z,90.40
2018-05-21T04:32:55.513Z,90.50
2018-05-21T04:35:24.333Z,91.00
2018-05-21T04:37:53.203Z,90.60
2018-05-21T04:40:22.013Z,90.50
2018-05-21T04:42:50.837Z,90.70
2018-05-21T04:45:19.714Z,90.70
2018-05-21T04:47:48.556Z,90.90
2018-05-21T04:50:18.163Z,91.10
2018-05-21T04:52:47.770Z,91.10
2018-05-21T04:55:17.380Z,91.30
2018-05-21T04:57:46.973Z,91.50
2018-05-21T05:00:16.599Z,91.60
2018-05-21T05:02:46.245Z,91.80
2018-05-21T05:05:15.013Z,91.80
2018-05-21T05:07:43.833Z,91.50
2018-05-21T05:10:12.691Z,91.70
2018-05-21T05:12:41.540Z,91.70
2018-05-21T05:15:10.370Z,91.80
2018-05-21T05:17:39.208Z,91.80
2018-05-21T05:20:08.048Z,92.10
2018-05-21T05:22:36.883Z,92.20
2018-05-21T05:25:05.720Z,92.50
2018-05-21T05:27:34.585Z,92.70
2018-05-21T05:30:04.177Z,93.00
2018-05-21T05:32:33.012Z,92.60
2018-05-21T05:35:01.833Z,93.10
2018-05-21T05:37:30.680Z,93.40
2018-05-21T05:39:59.514Z,93.40
2018-05-21T05:42:28.361Z,93.60
2018-05-21T05:44:57.207Z,93.80
2018-05-21T05:47:26.058Z,94.00
2018-05-21T05:49:54.893Z,94.20
2018-05-21T05:52:24.514Z,94.40
2018-05-21T05:54:54.117Z,94.50
2018-05-21T05:57:23.717Z,94.40
2018-05-21T05:59:53.309Z,94.30
2018-05-21T06:02:23.265Z,94.30
2018-05-21T06:04:52.101Z,94.60
2018-05-21T06:07:20.934Z,94.50
2018-05-21T06:09:50.553Z,95.00
2018-05-21T06:12:19.457Z,94.90
2018-05-21T06:14:48.340Z,95.00
2018-05-21T06:17:17.177Z,95.10
2018-05-21T06:19:46.022Z,95.20
2018-05-21T06:22:14.851Z,95.20
2018-05-21T06:24:43.704Z,95.40
2018-05-21T06:27:12.560Z,95.50
2018-05-21T06:29:42.148Z,96.10
2018-05-21T06:32:10.984Z,96.10
2018-05-21T06:34:39.951Z,95.80
2018-05-21T06:37:08.641Z,96.00
2018-05-21T06:39:37.489Z,96.50
2018-05-21T06:42:06.341Z,96.80
2018-05-21T06:44:35.188Z,97.10
2018-05-21T06:47:04.137Z,97.40
2018-05-21T06:49:32.971Z,97.50
2018-05-21T06:52:02.596Z,97.50
2018-05-21T06:54:31.450Z,97.50
2018-05-21T06:57:00.275Z,97.60
2018-05-21T06:59:29.121Z,97.80
2018-05-21T07:01:57.981Z,98.30
2018-05-21T07:04:26.836Z,98.70
2018-05-21T07:06:56.437Z,99.10
2018-05-21T07:09:26.041Z,99.50
2018-05-21T07:11:55.648Z,99.20
2018-05-21T07:14:25.249Z,99.60
2018-05-21T07:16:54.897Z,99.80
2018-05-21T07:19:23.722Z,99.80
2018-05-21T07:21:52.583Z,99.90
2018-05-21T07:24:21.469Z,99.90
2018-05-21T07:26:50.312Z,99.90
2018-05-21T07:29:19.925Z,99.90
2018-05-21T07:31:49.545Z,99.90
2018-05-21T07:34:18.433Z,99.90
2018-05-21T07:36:48.033Z,99.90
2018-05-21T07:39:17.650Z,99.90
2018-05-21T07:41:46.481Z,99.90
2018-05-21T07:44:15.314Z,99.90
2018-05-21T07:46:44.165Z,99.90
2018-05-21T07:49:13.001Z,99.90
2018-05-21T07:51:41.944Z,99.90
2018-05-21T07:54:11.472Z,99.90
2018-05-21T07:56:41.075Z,99.90
2018-05-21T07:59:10.733Z,99.90
2018-05-21T08:01:39.557Z,99.90
2018-05-21T08:04:08.391Z,99.90
2018-05-21T08:06:37.234Z,99.90
2018-05-21T08:09:06.070Z,99.90
2018-05-21T08:11:34.909Z,99.90
2018-05-21T08:14:04.834Z,99.90
2018-05-21T08:16:34.479Z,99.90
2018-05-21T08:19:03.314Z,99.90
2018-05-21T08:21:32.179Z,99.90
2018-05-21T08:24:01.018Z,99.90
2018-05-21T08:26:30.637Z,99.90
2018-05-21T08:29:00.255Z,99.90
2018-05-21T08:31:29.101Z,99.90
2018-05-21T08:33:57.941Z,99.60
2018-05-21T08:36:26.783Z,99.80
2018-05-21T08:38:55.632Z,99.60
2018-05-21T08:41:24.485Z,99.50
2018-05-21T08:43:53.328Z,98.70
2018-05-21T08:46:22.925Z,98.40
2018-05-21T08:48:52.561Z,98.00
2018-05-21T08:51:21.369Z,97.90
2018-05-21T08:53:50.238Z,97.50
2018-05-21T08:56:19.840Z,97.30
2018-05-21T08:58:49.460Z,97.00
2018-05-21T09:01:18.302Z,97.00
2018-05-21T09:03:47.164Z,95.60
2018-05-21T09:06:15.989Z,94.50
2018-05-21T09:08:45.621Z,95.20
2018-05-21T09:11:14.507Z,95.10
2018-05-21T09:13:44.099Z,93.80
2018-05-21T09:16:13.750Z,93.10
2018-05-21T09:18:43.327Z,91.80
2018-05-21T09:21:12.962Z,89.00
2018-05-21T09:23:42.540Z,88.70
2018-05-21T09:26:12.203Z,85.00
2018-05-21T09:28:41.110Z,84.80
2018-05-21T09:31:09.955Z,82.60
2018-05-21T09:33:38.803Z,79.30
2018-05-21T09:36:08.425Z,75.50
2018-05-21T09:38:39.228Z,74.00
2018-05-21T09:41:09.806Z,74.00
2018-05-21T09:43:38.665Z,73.20
2018-05-21T09:46:07.597Z,73.10
2018-05-21T09:48:36.546Z,71.30
2018-05-21T09:51:05.326Z,70.30
2018-05-21T09:53:34.164Z,69.60
2018-05-21T09:56:03.037Z,67.50
2018-05-21T09:58:31.885Z,65.90
2018-05-21T10:01:01.040Z,63.70
2018-05-21T10:03:29.911Z,62.90
2018-05-21T10:05:59.537Z,62.80
2018-05-21T10:08:28.394Z,62.70
2018-05-21T10:10:58.006Z,62.40
2018-05-21T10:13:26.849Z,62.20
2018-05-21T10:15:55.704Z,61.90
2018-05-21T10:18:24.748Z,62.20
2018-05-21T10:20:53.631Z,59.50
2018-05-21T10:23:22.500Z,58.90
2018-05-21T10:25:51.359Z,59.50
2018-05-21T10:28:20.950Z,59.10
2018-05-21T10:30:50.916Z,59.40
2018-05-21T10:33:19.784Z,59.30
2018-05-21T10:35:48.616Z,58.30
2018-05-21T10:38:17.473Z,58.00
2018-05-21T10:40:46.304Z,55.70
2018-05-21T10:43:15.947Z,55.10
2018-05-21T10:45:44.804Z,55.10
2018-05-21T10:48:13.683Z,56.00
2018-05-21T10:50:42.529Z,55.50
2018-05-21T10:53:11.376Z,54.30
2018-05-21T10:55:41.019Z,53.10
2018-05-21T10:58:09.991Z,53.00
2018-05-21T11:00:38.840Z,53.30
2018-05-21T11:03:07.687Z,54.60
2018-05-21T11:05:36.573Z,53.40
2018-05-21T11:08:05.417Z,52.60
2018-05-21T11:10:34.287Z,53.40
2018-05-21T11:13:03.142Z,53.90
2018-05-21T11:15:31.990Z,53.10
2018-05-21T11:18:01.982Z,51.80
2018-05-21T11:20:31.560Z,52.40
2018-05-21T11:23:00.398Z,52.40
2018-05-21T11:25:30.016Z,53.90
2018-05-21T11:27:58.861Z,53.80
2018-05-21T11:30:27.720Z,52.80
2018-05-21T11:32:56.573Z,52.70
2018-05-21T11:35:25.397Z,52.40
2018-05-21T11:37:54.248Z,51.90
2018-05-21T11:40:23.104Z,52.30
2018-05-21T11:42:51.963Z,51.80
2018-05-21T11:45:20.808Z,51.50
2018-05-21T11:47:50.461Z,51.80
2018-05-21T11:50:19.271Z,51.70
2018-05-21T11:52:48.123Z,51.50
2018-05-21T11:55:16.954Z,52.40
2018-05-21T11:57:45.835Z,52.10
2018-05-21T12:00:14.650Z,51.30
2018-05-21T12:02:44.348Z,50.30
2018-05-21T12:05:13.130Z,50.30
2018-05-21T12:07:41.976Z,49.70
2018-05-21T12:10:10.815Z,49.80
2018-05-21T12:12:40.462Z,51.60
2018-05-21T12:15:09.336Z,51.60
2018-05-21T12:17:38.210Z,52.50
2018-05-21T12:20:07.044Z,55.00
2018-05-21T12:22:36.010Z,55.80
2018-05-21T12:25:05.635Z,57.30
2018-05-21T12:27:34.484Z,57.20
2018-05-21T12:30:03.328Z,59.10
2018-05-21T12:32:32.208Z,58.50
2018-05-21T12:35:01.075Z,58.50
2018-05-21T12:37:30.659Z,59.10
2018-05-21T12:40:00.274Z,61.00
2018-05-21T12:42:29.880Z,60.50
2018-05-21T12:44:58.746Z,60.30
2018-05-21T12:47:28.109Z,62.30
2018-05-21T12:49:58.451Z,61.90
2018-05-21T12:52:27.287Z,61.90
2018-05-21T12:54:56.190Z,59.90
2018-05-21T12:57:25.022Z,59.90
2018-05-21T12:59:53.888Z,60.60
2018-05-21T13:02:23.513Z,59.70
2018-05-21T13:04:52.374Z,59.60
2018-05-21T13:07:21.194Z,59.50
2018-05-21T13:09:50.012Z,60.50
2018-05-21T13:12:18.899Z,59.20
2018-05-21T13:14:47.730Z,58.30
2018-05-21T13:17:17.376Z,58.80
2018-05-21T13:19:46.218Z,58.70
2018-05-21T13:22:15.681Z,58.00
2018-05-21T13:24:44.510Z,58.20
2018-05-21T13:27:13.368Z,58.30
2018-05-21T13:29:43.034Z,58.10
2018-05-21T13:32:12.673Z,57.90
2018-05-21T13:34:41.855Z,57.80
2018-05-21T13:37:10.613Z,56.90
2018-05-21T13:39:39.457Z,57.60
2018-05-21T13:42:08.306Z,57.50
2018-05-21T13:44:37.140Z,56.80
2018-05-21T13:47:06.413Z,56.20
2018-05-21T13:49:35.257Z,56.70
2018-05-21T13:52:04.816Z,57.00
2018-05-21T13:54:33.682Z,57.30
2018-05-21T13:57:02.508Z,56.60
2018-05-21T13:59:32.124Z,55.60
2018-05-21T14:02:00.973Z,56.10
2018-05-21T14:04:29.836Z,56.40
2018-05-21T14:06:58.684Z,55.40
2018-05-21T14:09:27.577Z,55.70
2018-05-21T14:11:57.189Z,55.40
2018-05-21T14:14:26.821Z,55.10
2018-05-21T14:16:55.656Z,55.10
2018-05-21T14:19:26.035Z,55.40
2018-05-21T14:21:54.850Z,55.40
2018-05-21T14:24:23.708Z,55.80
2018-05-21T14:26:52.564Z,56.30
2018-05-21T14:29:21.406Z,56.00
2018-05-21T14:31:50.249Z,55.30
2018-05-21T14:34:19.864Z,56.70
2018-05-21T14:36:49.469Z,54.90
2018-05-21T14:39:19.081Z,55.50
2018-05-21T14:41:48.673Z,55.30
2018-05-21T14:44:18.304Z,55.70
2018-05-21T14:46:47.863Z,55.70
2018-05-21T14:49:16.734Z,56.00
2018-05-21T14:51:45.561Z,56.20
2018-05-21T14:54:15.168Z,55.10
2018-05-21T14:56:44.165Z,55.10
2018-05-21T14:59:13.113Z,56.30
2018-05-21T15:01:41.969Z,54.90
2018-05-21T15:04:10.833Z,55.10
2018-05-21T15:06:40.452Z,56.80
2018-05-21T15:09:10.053Z,55.20
2018-05-21T15:11:39.772Z,55.10
2018-05-21T15:14:08.647Z,55.00
2018-05-21T15:16:38.274Z,55.80
2018-05-21T15:19:08.029Z,55.70
2018-05-21T15:21:36.858Z,55.60
2018-05-21T15:24:06.469Z,55.80
2018-05-21T15:26:36.073Z,56.20
2018-05-21T15:29:05.693Z,56.00
2018-05-21T15:31:34.516Z,56.00
2018-05-21T15:34:03.392Z,55.40
2018-05-21T15:36:32.232Z,56.00
2018-05-21T15:39:01.092Z,56.30
2018-05-21T15:41:29.909Z,55.60
2018-05-21T15:43:58.761Z,55.40
2018-05-21T15:46:29.179Z,55.50
2018-05-21T15:48:58.777Z,55.00
2018-05-21T15:51:28.357Z,54.90
2018-05-21T15:53:58.707Z,55.40
2018-05-21T15:56:28.285Z,55.60
2018-05-21T15:58:57.130Z,55.60
2018-05-21T16:01:25.970Z,55.50
2018-05-21T16:03:54.827Z,56.60
2018-05-21T16:06:23.688Z,57.20
2018-05-21T16:08:53.317Z,57.90
2018-05-21T16:11:22.197Z,57.90
2018-05-21T16:13:51.040Z,57.30
2018-05-21T16:16:20.703Z,57.20
2018-05-21T16:18:49.538Z,57.10
2018-05-21T16:21:18.379Z,57.50
2018-05-21T16:23:47.215Z,57.70
2018-05-21T16:26:16.078Z,57.50
2018-05-21T16:28:45.049Z,58.40
2018-05-21T16:31:13.880Z,58.60
2018-05-21T16:33:43.254Z,57.70
2018-05-21T16:36:12.090Z,58.10
2018-05-21T16:38:41.703Z,58.40
2018-05-21T16:41:10.586Z,58.30
2018-05-21T16:43:40.195Z,58.10
2018-05-21T16:46:09.059Z,58.10
2018-05-21T16:48:38.908Z,58.70
2018-05-21T16:51:08.065Z,58.60
2018-05-21T16:53:37.670Z,58.80
2018-05-21T16:56:07.289Z,58.80
2018-05-21T16:58:36.155Z,58.70
2018-05-21T17:01:04.986Z,58.10
2018-05-21T17:03:34.281Z,58.20
2018-05-21T17:06:03.871Z,58.60
2018-05-21T17:08:33.282Z,58.50
2018-05-21T17:11:02.242Z,58.80
2018-05-21T17:13:31.802Z,58.60
2018-05-21T17:16:00.633Z,58.60
2018-05-21T17:18:30.991Z,58.40
2018-05-21T17:20:59.838Z,58.40
2018-05-21T17:23:28.693Z,58.50
2018-05-21T17:25:57.556Z,58.30
2018-05-21T17:28:29.336Z,58.90
2018-05-21T17:30:58.200Z,59.00
2018-05-21T17:33:27.805Z,59.20
2018-05-21T17:35:57.419Z,59.20
2018-05-21T17:38:27.029Z,59.30
2018-05-21T17:40:56.647Z,59.10
2018-05-21T17:43:26.262Z,59.10
2018-05-21T17:45:55.099Z,59.00
2018-05-21T17:48:23.949Z,59.40
2018-05-21T17:50:53.050Z,60.30
2018-05-21T17:53:21.856Z,60.00
2018-05-21T17:55:51.044Z,59.40
2018-05-21T17:58:21.263Z,59.60
2018-05-21T18:00:50.877Z,59.40
2018-05-21T18:03:20.917Z,59.60
2018-05-21T18:05:50.119Z,59.60
2018-05-21T18:08:19.009Z,59.40
2018-05-21T18:10:47.847Z,59.40
2018-05-21T18:13:16.690Z,59.30
2018-05-21T18:15:45.575Z,59.50
2018-05-21T18:18:14.423Z,59.70
2018-05-21T18:20:43.243Z,60.00
2018-05-21T18:23:12.539Z,60.20
2018-05-21T18:25:41.386Z,60.60
2018-05-21T18:28:11.009Z,61.20
2018-05-21T18:30:40.753Z,61.50
2018-05-21T18:33:09.625Z,61.40
2018-05-21T18:35:39.273Z,62.00
2018-05-21T18:38:08.157Z,61.90
2018-05-21T18:40:37.001Z,62.00
2018-05-21T18:43:06.032Z,62.40
2018-05-21T18:45:34.870Z,62.60
2018-05-21T18:48:03.802Z,62.90
2018-05-21T18:50:33.408Z,63.30
2018-05-21T18:53:03.057Z,63.40
2018-05-21T18:55:31.905Z,63.30
2018-05-21T18:58:01.513Z,63.40
2018-05-21T19:00:31.145Z,64.60
2018-05-21T19:03:00.005Z,63.60
2018-05-21T19:05:28.841Z,63.60
2018-05-21T19:07:57.690Z,63.90
2018-05-21T19:10:27.321Z,63.90
2018-05-21T19:12:56.910Z,64.00
2018-05-21T19:15:26.542Z,63.70
2018-05-21T19:17:55.407Z,63.60
2018-05-21T19:20:25.031Z,64.30
2018-05-21T19:22:54.016Z,64.10
2018-05-21T19:25:23.643Z,64.20
2018-05-21T19:27:52.532Z,64.20
2018-05-21T19:30:21.419Z,64.70
2018-05-21T19:32:50.272Z,64.80
2018-05-21T19:35:19.860Z,65.10
2018-05-21T19:37:50.283Z,65.00
2018-05-21T19:40:19.210Z,65.00
2018-05-21T19:42:48.019Z,65.50
2018-05-21T19:45:16.911Z,65.50
2018-05-21T19:47:45.762Z,66.30
2018-05-21T19:50:14.629Z,66.30
2018-05-21T19:52:43.758Z,66.80
2018-05-21T19:55:12.668Z,67.70
2018-05-21T19:57:41.560Z,67.30
2018-05-21T20:00:11.413Z,67.40
2018-05-21T20:02:40.311Z,67.60
2018-05-21T20:05:09.154Z,67.90
2018-05-21T20:07:38.795Z,69.00
2018-05-21T20:10:08.018Z,68.00
2018-05-21T20:12:37.015Z,68.00
2018-05-21T20:15:05.859Z,68.50
2018-05-21T20:17:35.481Z,69.10
2018-05-21T20:20:04.465Z,69.10
2018-05-21T20:22:34.070Z,69.70
2018-05-21T20:25:04.506Z,70.10
2018-05-21T20:27:34.103Z,70.50
2018-05-21T20:30:04.133Z,70.60
2018-05-21T20:32:32.990Z,70.50
2018-05-21T20:35:02.605Z,70.80
2018-05-21T20:37:32.233Z,71.00
2018-05-21T20:40:01.098Z,70.90
2018-05-21T20:42:30.696Z,71.50
2018-05-21T20:44:59.587Z,71.60
2018-05-21T20:47:28.424Z,71.80
2018-05-21T20:49:57.273Z,72.00
2018-05-21T20:52:26.105Z,72.10
2018-05-21T20:54:55.757Z,72.20
2018-05-21T20:57:24.641Z,72.20
2018-05-21T20:59:53.530Z,72.50
2018-05-21T21:02:22.420Z,72.60
2018-05-21T21:04:51.317Z,72.70
2018-05-21T21:07:20.134Z,72.90
2018-05-21T21:09:49.096Z,72.90
2018-05-21T21:12:18.187Z,73.00
2018-05-21T21:14:47.361Z,73.40
2018-05-21T21:17:16.458Z,73.40
2018-05-21T21:19:45.516Z,73.40
2018-05-21T21:22:15.151Z,73.80
2018-05-21T21:24:44.762Z,74.40
2018-05-21T21:27:13.632Z,74.20
2018-05-21T21:29:42.486Z,75.40
2018-05-21T21:32:11.353Z,75.00
2018-05-21T21:34:40.239Z,74.60
2018-05-21T21:37:09.080Z,74.70
2018-05-21T21:39:37.940Z,75.00
2018-05-21T21:42:06.808Z,75.20
2018-05-21T21:44:35.677Z,75.30
2018-05-21T21:47:04.510Z,75.60
2018-05-21T21:49:33.336Z,75.70
2018-05-21T21:52:02.996Z,76.30
2018-05-21T21:54:33.188Z,76.60
2018-05-21T21:57:02.066Z,76.60
2018-05-21T21:59:30.900Z,76.60
2018-05-21T22:02:00.508Z,75.80
2018-05-21T22:04:30.117Z,76.10
2018-05-21T22:06:59.600Z,76.10
2018-05-21T22:09:28.489Z,76.00
2018-05-21T22:11:57.313Z,77.30
2018-05-21T22:14:26.588Z,76.90
2018-05-21T22:16:56.616Z,76.40
2018-05-21T22:19:25.883Z,76.30
2018-05-21T22:21:54.724Z,76.50
2018-05-21T22:24:25.345Z,77.00
2018-05-21T22:26:54.198Z,77.00
2018-05-21T22:29:23.063Z,77.10
2018-05-21T22:31:52.456Z,77.70
2018-05-21T22:34:21.303Z,77.60
2018-05-21T22:36:50.952Z,77.80
2018-05-21T22:39:19.754Z,77.70
2018-05-21T22:41:48.613Z,77.60
2018-05-21T22:44:17.448Z,78.00
2018-05-21T22:46:46.317Z,78.80
2018-05-21T22:49:16.693Z,78.80
2018-05-21T22:51:45.549Z,78.70
2018-05-21T22:54:26.362Z,78.80
2018-05-21T22:56:55.897Z,78.70
2018-05-21T22:59:24.712Z,78.80
2018-05-21T23:01:53.553Z,79.00
2018-05-21T23:04:22.393Z,79.20
2018-05-21T23:06:51.233Z,79.20
2018-05-21T23:09:20.077Z,79.20
2018-05-21T23:11:48.907Z,79.20
2018-05-21T23:14:17.766Z,79.50
2018-05-21T23:16:46.632Z,79.90
2018-05-21T23:19:16.241Z,79.90
2018-05-21T23:21:45.066Z,79.90
2018-05-21T23:24:14.254Z,80.30
2018-05-21T23:26:43.084Z,80.30
2018-05-21T23:29:12.693Z,80.50
2018-05-21T23:31:42.305Z,80.50
2018-05-21T23:34:11.947Z,80.90
2018-05-21T23:36:40.804Z,80.70
2018-05-21T23:39:10.446Z,81.80
2018-05-21T23:41:39.345Z,80.90
2018-05-21T23:44:08.161Z,81.20
2018-05-21T23:46:36.999Z,81.40
2018-05-21T23:49:05.849Z,81.20
2018-05-21T23:51:34.699Z,81.20
2018-05-21T23:54:03.530Z,81.50
2018-05-21T23:56:32.404Z,81.10
2018-05-21T23:59:02.030Z,81.30
